Time;durP1;ratioP1;P1;durP2;ratioP2;P2;SDS_P1;SDS_P2;PMS_P1;PMS_P2;Temp;Humidity;BMP_temperature;BMP_pressure;BME280_temperature;BME280_humidity;BME280_pressure;Samples;Min_cycle;Max_cycle;Signal;HPM_P1;HPM_P2
2022/12/17 13:06:43;;;;;;;44.15;29.25;;;8.10;99.90;;;;;;4955143;29;20058;-80
2022/12/17 13:09:15;;;;;;;47.30;28.67;;;8.10;99.90;;;;;;4953585;28;20027;-80
2022/12/17 13:11:48;;;;;;;59.67;32.35;;;8.10;99.90;;;;;;4963284;28;20029;-80
2022/12/17 13:14:30;;;;;;;56.42;33.45;;;8.10;99.90;;;;;;4985661;28;20033;-80
2022/12/17 13:17:17;;;;;;;47.75;29.63;;;8.10;99.90;;;;;;5001637;28;20027;-80
2022/12/17 13:19:57;;;;;;;46.03;29.92;;;8.20;99.90;;;;;;4953989;29;20126;-80
2022/12/17 13:22:23;;;;;;;45.78;29.02;;;8.20;99.90;;;;;;4953863;29;20385;-80
2022/12/17 13:25:17;;;;;;;51.40;30.52;;;8.30;99.90;;;;;;4955124;28;20019;-80
2022/12/17 13:27:44;;;;;;;45.50;28.27;;;8.30;99.90;;;;;;4947567;28;20039;-80
2022/12/17 13:30:37;;;;;;;45.58;29.95;;;8.30;99.90;;;;;;4973770;28;20113;-80
2022/12/17 13:33:26;;;;;;;47.33;31.52;;;8.30;99.90;;;;;;4965331;28;20380;-80
2022/12/17 13:36:07;;;;;;;43.78;27.73;;;8.40;99.90;;;;;;4967576;28;20031;-80
2022/12/17 13:38:42;;;;;;;49.72;31.73;;;8.40;99.90;;;;;;4972251;28;20030;-80
2022/12/17 13:41:13;;;;;;;53.35;33.42;;;8.40;99.90;;;;;;4971789;28;20571;-80
2022/12/17 13:43:51;;;;;;;60.25;34.75;;;8.50;99.90;;;;;;4974030;28;20069;-76
2022/12/17 13:46:34;;;;;;;55.35;33.40;;;8.40;99.90;;;;;;4970353;28;20392;-76
2022/12/17 13:49:03;;;;;;;53.75;33.83;;;8.40;99.90;;;;;;4956729;28;20119;-77
2022/12/17 13:51:32;;;;;;;54.97;34.28;;;8.50;99.90;;;;;;4961652;28;20058;-80
2022/12/17 13:54:00;;;;;;;54.13;34.40;;;8.40;99.90;;;;;;4961257;28;20045;-80
2022/12/17 13:56:36;;;;;;;52.10;32.65;;;8.40;99.90;;;;;;4962880;28;20090;-80
2022/12/17 13:59:04;;;;;;;50.28;33.13;;;8.40;99.90;;;;;;4975962;28;20030;-80
2022/12/17 14:01:31;;;;;;;48.75;32.42;;;8.40;99.90;;;;;;4972771;28;20026;-80
2022/12/17 14:03:59;;;;;;;55.55;33.92;;;8.50;99.90;;;;;;4972520;28;20035;-79
2022/12/17 14:06:36;;;;;;;55.15;33.63;;;8.50;99.90;;;;;;4975835;28;20019;-80
2022/12/17 14:09:03;;;;;;;44.72;27.67;;;8.50;99.90;;;;;;4956147;28;20069;-80
2022/12/17 14:14:34;;;;;;;50.20;32.22;;;8.50;99.90;;;;;;4967124;28;20515;-80
2022/12/17 14:17:00;;;;;;;49.33;32.90;;;8.50;99.90;;;;;;4957286;28;20046;-80
2022/12/17 14:19:27;;;;;;;47.88;31.23;;;8.50;99.90;;;;;;4960471;28;20035;-80
2022/12/17 14:21:54;;;;;;;43.03;29.08;;;8.50;99.90;;;;;;4959968;28;20420;-80
2022/12/17 14:24:22;;;;;;;42.55;28.42;;;8.50;99.90;;;;;;4964810;28;20109;-80
2022/12/17 14:26:53;;;;;;;43.28;27.77;;;8.50;99.90;;;;;;4965831;28;20502;-81
2022/12/17 14:29:27;;;;;;;41.70;26.77;;;8.50;99.90;;;;;;4962583;28;20043;-80
2022/12/17 14:32:01;;;;;;;37.92;26.92;;;8.50;99.90;;;;;;4964981;28;20031;-80
2022/12/17 14:34:28;;;;;;;42.53;27.08;;;8.50;99.90;;;;;;4964801;28;20062;-80
2022/12/17 14:36:59;;;;;;;48.58;30.38;;;8.50;99.90;;;;;;4963784;28;20041;-80
2022/12/17 14:39:28;;;;;;;48.83;32.50;;;8.50;99.90;;;;;;4967124;28;20392;-80
2022/12/17 14:42:28;;;;;;;47.63;32.58;;;8.50;99.90;;;;;;4967583;28;20204;-80
2022/12/17 14:45:00;;;;;;;48.33;34.35;;;8.60;99.90;;;;;;4966045;28;20027;-80
2022/12/17 14:47:29;;;;;;;61.63;37.50;;;8.60;99.90;;;;;;4961214;28;20454;-80
2022/12/17 14:50:04;;;;;;;49.90;33.40;;;8.60;99.90;;;;;;4970146;28;20039;-80
2022/12/17 14:52:36;;;;;;;44.28;29.65;;;8.60;99.90;;;;;;4969156;28;20019;-80
2022/12/17 14:55:23;;;;;;;42.35;28.83;;;8.60;99.90;;;;;;4964936;28;20081;-80
2022/12/17 14:57:50;;;;;;;53.53;33.60;;;8.50;99.90;;;;;;4963800;28;20040;-80
2022/12/17 15:00:17;;;;;;;51.40;33.95;;;8.60;99.90;;;;;;4967346;28;20110;-80
2022/12/17 15:02:47;;;;;;;49.22;31.60;;;8.50;99.90;;;;;;4964274;28;20030;-80
2022/12/17 15:05:15;;;;;;;63.75;40.78;;;8.50;99.90;;;;;;4967862;28;20122;-80
2022/12/17 15:07:41;;;;;;;54.75;34.65;;;8.50;99.90;;;;;;4967380;28;20110;-80
2022/12/17 15:10:12;;;;;;;50.17;32.03;;;8.50;99.90;;;;;;4964001;28;20038;-80
2022/12/17 15:12:41;;;;;;;42.65;28.15;;;8.50;99.90;;;;;;4966931;28;20065;-80
2022/12/17 15:15:10;;;;;;;39.22;27.48;;;8.50;99.90;;;;;;4968138;28;20030;-80
2022/12/17 15:17:36;;;;;;;42.38;28.33;;;8.50;99.90;;;;;;4962746;28;20039;-82
2022/12/17 15:20:03;;;;;;;48.67;30.33;;;8.50;99.90;;;;;;4960296;28;20366;-81
2022/12/17 15:22:28;;;;;;;52.88;31.17;;;8.40;99.90;;;;;;4964045;28;20473;-80
2022/12/17 15:24:54;;;;;;;58.03;37.08;;;8.40;99.90;;;;;;4962852;28;20031;-80
2022/12/17 15:27:20;;;;;;;51.17;31.42;;;8.40;99.90;;;;;;4971033;28;20027;-80
2022/12/17 15:29:45;;;;;;;49.53;31.90;;;8.30;99.90;;;;;;4974124;28;20477;-80
2022/12/17 15:32:18;;;;;;;46.95;33.05;;;8.30;99.90;;;;;;4962244;28;20386;-80
2022/12/17 15:34:43;;;;;;;47.45;31.10;;;8.30;99.90;;;;;;4967301;28;20027;-81
2022/12/17 15:37:09;;;;;;;44.35;28.92;;;8.30;99.90;;;;;;4966933;28;20097;-80
2022/12/17 15:39:35;;;;;;;44.45;30.40;;;8.30;99.90;;;;;;4970793;28;20174;-80
2022/12/17 15:44:44;;;;;;;46.28;31.05;;;8.20;99.90;;;;;;4965171;28;20158;-80
2022/12/17 15:47:10;;;;;;;48.95;30.60;;;8.20;99.90;;;;;;4960557;28;20106;-80
2022/12/17 15:49:36;;;;;;;52.60;35.47;;;8.20;99.90;;;;;;4963631;28;20397;-80
2022/12/17 15:52:01;;;;;;;59.97;36.47;;;8.10;99.90;;;;;;4971055;28;20104;-80
2022/12/17 15:54:27;;;;;;;61.72;37.55;;;8.10;99.90;;;;;;4964665;28;20121;-80
2022/12/17 15:56:54;;;;;;;57.25;37.30;;;8.10;99.90;;;;;;4967121;28;20051;-80
2022/12/17 15:59:20;;;;;;;52.53;36.03;;;8.10;99.90;;;;;;4972798;28;20022;-80
2022/12/17 16:01:45;;;;;;;53.08;34.90;;;8.20;99.90;;;;;;4963248;28;20023;-80
2022/12/17 16:04:11;;;;;;;48.15;32.72;;;8.10;99.90;;;;;;4965446;28;20086;-80
2022/12/17 16:06:37;;;;;;;48.40;33.80;;;8.20;99.90;;;;;;4960407;28;20024;-80
2022/12/17 16:09:03;;;;;;;45.00;30.92;;;8.20;99.90;;;;;;4964904;28;20039;-80
2022/12/17 16:11:28;;;;;;;58.88;35.70;;;8.20;99.90;;;;;;4961925;28;20073;-80
2022/12/17 16:13:55;;;;;;;45.65;33.10;;;8.20;99.90;;;;;;4964610;28;20030;-80
2022/12/17 16:16:21;;;;;;;51.28;33.20;;;8.10;99.90;;;;;;4962174;28;20035;-80
2022/12/17 16:18:47;;;;;;;37.67;26.27;;;8.10;99.90;;;;;;4965575;28;20070;-81
2022/12/17 16:21:13;;;;;;;37.63;27.00;;;8.10;99.90;;;;;;4962627;28;20437;-80
2022/12/17 16:23:39;;;;;;;45.00;29.65;;;8.10;99.90;;;;;;4964843;28;20038;-80
2022/12/17 16:26:07;;;;;;;47.03;31.52;;;8.10;99.90;;;;;;4966000;28;20094;-80
2022/12/17 16:28:34;;;;;;;49.03;32.10;;;8.10;99.90;;;;;;4961871;28;20126;-80
2022/12/17 16:31:03;;;;;;;50.60;33.03;;;8.10;99.90;;;;;;4962603;28;20106;-80
2022/12/17 16:33:47;;;;;;;61.15;34.50;;;8.00;99.90;;;;;;4964306;28;20034;-81
2022/12/17 16:36:15;;;;;;;58.08;36.15;;;7.90;99.90;;;;;;4960786;28;20038;-80
2022/12/17 16:38:45;;;;;;;54.00;34.65;;;7.80;99.90;;;;;;4963311;28;20089;-80
2022/12/17 16:41:12;;;;;;;40.08;27.58;;;7.80;99.90;;;;;;4968189;28;20027;-80
2022/12/17 16:43:39;;;;;;;27.40;19.38;;;7.80;99.90;;;;;;4963809;28;20027;-80
2022/12/17 16:46:05;;;;;;;36.95;24.45;;;7.80;99.90;;;;;;4962189;28;20015;-80
2022/12/17 16:48:37;;;;;;;36.85;24.70;;;7.90;99.90;;;;;;4964204;28;20508;-80
2022/12/17 16:51:15;;;;;;;34.13;22.75;;;7.90;99.90;;;;;;4964705;28;20106;-80
2022/12/17 16:53:42;;;;;;;34.10;24.05;;;7.90;99.90;;;;;;4964709;28;20023;-81
2022/12/17 16:56:13;;;;;;;35.92;24.05;;;7.80;99.90;;;;;;4964020;28;20503;-80
2022/12/17 16:58:39;;;;;;;56.00;30.40;;;7.80;99.90;;;;;;4968842;28;20039;-80
2022/12/17 17:01:05;;;;;;;39.53;27.30;;;7.70;99.90;;;;;;4961463;28;20420;-80
2022/12/17 17:03:30;;;;;;;49.35;34.75;;;7.60;99.90;;;;;;4964523;28;20027;-80
2022/12/17 17:06:00;;;;;;;57.03;40.13;;;7.60;99.90;;;;;;4961997;28;20058;-80
2022/12/17 17:08:25;;;;;;;60.55;41.97;;;7.60;99.90;;;;;;4964297;28;20027;-80
2022/12/17 17:10:51;;;;;;;60.92;38.08;;;7.60;99.90;;;;;;4963032;28;20026;-80
2022/12/17 17:13:17;;;;;;;46.05;34.08;;;7.50;99.90;;;;;;4969963;28;20033;-80
2022/12/17 17:15:43;;;;;;;53.45;34.00;;;7.40;99.90;;;;;;4963359;28;20031;-80
2022/12/17 17:18:09;;;;;;;38.67;28.38;;;7.40;99.90;;;;;;4961482;28;20031;-80
2022/12/17 17:20:34;;;;;;;34.97;25.67;;;7.40;99.90;;;;;;4962540;28;20038;-80
2022/12/17 17:23:01;;;;;;;31.33;23.33;;;7.40;99.90;;;;;;4962557;28;20074;-80
2022/12/17 17:25:27;;;;;;;34.83;22.30;;;7.50;99.90;;;;;;4971242;28;20038;-80
2022/12/17 17:27:53;;;;;;;33.55;23.17;;;7.50;99.90;;;;;;4965133;28;20397;-80
2022/12/17 17:30:19;;;;;;;36.85;25.48;;;7.50;99.90;;;;;;4963177;28;20081;-80
2022/12/17 17:32:44;;;;;;;36.03;25.20;;;7.50;99.90;;;;;;4963797;28;20110;-80
2022/12/17 17:35:10;;;;;;;39.10;27.52;;;7.40;99.90;;;;;;4964911;28;20063;-80
2022/12/17 17:37:36;;;;;;;42.33;29.50;;;7.40;99.90;;;;;;4963778;28;20030;-80
2022/12/17 17:40:02;;;;;;;45.22;29.92;;;7.40;99.90;;;;;;4963904;28;20393;-80
2022/12/17 17:42:27;;;;;;;43.17;28.30;;;7.30;99.90;;;;;;4960038;28;20034;-80
2022/12/17 17:44:53;;;;;;;47.53;29.85;;;7.30;99.90;;;;;;4971170;28;20030;-80
2022/12/17 17:47:19;;;;;;;44.47;27.77;;;7.30;99.90;;;;;;4961988;28;20030;-80
2022/12/17 17:49:44;;;;;;;43.83;28.58;;;7.30;99.90;;;;;;4970936;28;20059;-80
2022/12/17 17:52:10;;;;;;;36.92;25.70;;;7.20;99.90;;;;;;4961152;28;20019;-80
2022/12/17 17:54:38;;;;;;;34.83;24.25;;;7.30;99.90;;;;;;4965137;28;20397;-80
2022/12/17 17:57:04;;;;;;;31.90;23.13;;;7.20;99.90;;;;;;4965855;28;20054;-80
2022/12/17 17:59:31;;;;;;;29.65;23.00;;;7.20;99.90;;;;;;4969144;28;20113;-80
2022/12/17 18:01:56;;;;;;;32.67;22.38;;;7.20;99.90;;;;;;4963113;28;20027;-80
2022/12/17 18:04:23;;;;;;;32.20;21.08;;;7.30;99.90;;;;;;4961630;28;20031;-80
2022/12/17 18:06:49;;;;;;;26.40;18.55;;;7.30;99.90;;;;;;4961110;28;20074;-80
2022/12/17 18:09:15;;;;;;;20.80;15.25;;;7.40;99.90;;;;;;4962467;28;20485;-80
2022/12/17 18:11:42;;;;;;;21.63;15.75;;;7.60;99.90;;;;;;4962147;28;20118;-80
2022/12/17 18:14:10;;;;;;;19.80;14.52;;;7.60;99.90;;;;;;4962058;28;20039;-80
2022/12/17 18:16:36;;;;;;;26.58;19.48;;;7.70;99.90;;;;;;4962115;28;20030;-80
2022/12/17 18:19:06;;;;;;;24.52;19.30;;;7.70;99.90;;;;;;4957439;28;20556;-80
2022/12/17 18:21:32;;;;;;;29.75;20.27;;;7.60;99.90;;;;;;4960929;28;20110;-80
2022/12/17 18:24:16;;;;;;;31.25;21.15;;;7.40;99.90;;;;;;4967225;28;20027;-80
2022/12/17 18:26:43;;;;;;;27.98;21.90;;;7.40;99.90;;;;;;4969741;28;20122;-80
2022/12/17 18:29:11;;;;;;;24.13;17.50;;;7.30;99.90;;;;;;4971589;28;20026;-80
2022/12/17 18:31:37;;;;;;;19.25;16.00;;;7.20;99.90;;;;;;4971716;28;20034;-80
2022/12/17 18:34:04;;;;;;;17.75;13.98;;;7.20;99.90;;;;;;4971724;28;20049;-80
2022/12/17 18:36:36;;;;;;;18.70;14.15;;;7.20;99.90;;;;;;4971607;28;20477;-80
2022/12/17 18:39:23;;;;;;;17.15;13.23;;;7.10;99.90;;;;;;4970536;28;20113;-80
2022/12/17 18:44:40;;;;;;;15.38;12.52;;;7.00;99.90;;;;;;4971638;28;20078;-80
2022/12/17 18:47:07;;;;;;;18.02;13.30;;;6.90;99.90;;;;;;4967191;28;20037;-80
2022/12/17 18:49:33;;;;;;;17.90;13.10;;;6.90;99.90;;;;;;4970938;28;20031;-80
2022/12/17 18:52:01;;;;;;;17.38;13.52;;;6.90;99.90;;;;;;4973274;28;20042;-80
2022/12/17 18:54:28;;;;;;;13.80;12.10;;;6.80;99.90;;;;;;4973385;28;20039;-80
2022/12/17 18:56:56;;;;;;;17.13;13.23;;;6.80;99.90;;;;;;4972910;28;20078;-80
2022/12/17 18:59:25;;;;;;;16.77;12.98;;;6.80;99.90;;;;;;4966886;28;20031;-80
2022/12/17 19:01:51;;;;;;;17.75;13.27;;;6.80;99.90;;;;;;4969222;28;20080;-80
2022/12/17 19:04:19;;;;;;;18.02;14.23;;;6.70;99.90;;;;;;4970562;28;20031;-80
2022/12/17 19:06:47;;;;;;;16.00;13.60;;;6.70;99.90;;;;;;4969029;28;20485;-80
2022/12/17 19:09:26;;;;;;;19.35;13.32;;;6.60;99.90;;;;;;4975937;28;20030;-80
2022/12/17 19:11:53;;;;;;;17.00;14.23;;;6.60;99.90;;;;;;4975626;28;20031;-80
2022/12/17 19:14:21;;;;;;;19.92;14.15;;;6.50;99.90;;;;;;4975137;28;20039;-80
2022/12/17 19:16:47;;;;;;;19.98;14.23;;;6.50;99.90;;;;;;4976624;28;20019;-80
2022/12/17 19:19:13;;;;;;;18.48;14.70;;;6.50;99.90;;;;;;4976648;28;20106;-80
2022/12/17 19:21:39;;;;;;;17.52;15.00;;;6.50;99.90;;;;;;4974365;28;20023;-80
2022/12/17 19:24:07;;;;;;;16.13;13.43;;;6.50;99.90;;;;;;4957304;28;20020;-80
2022/12/17 19:26:34;;;;;;;20.60;16.33;;;6.50;99.90;;;;;;4966142;28;20488;-80
2022/12/17 19:29:00;;;;;;;25.88;17.13;;;6.50;99.90;;;;;;4974968;28;20031;-80
2022/12/17 19:31:29;;;;;;;17.60;15.50;;;6.50;99.90;;;;;;4976201;28;20026;-80
2022/12/17 19:34:00;;;;;;;19.05;14.88;;;6.40;99.90;;;;;;4964585;28;20027;-80
2022/12/17 19:36:28;;;;;;;15.98;14.27;;;6.40;99.90;;;;;;4970815;28;20019;-80
2022/12/17 19:38:58;;;;;;;17.63;14.70;;;6.40;99.90;;;;;;4976251;28;20118;-80
2022/12/17 19:41:25;;;;;;;19.67;15.07;;;6.40;99.90;;;;;;4976172;28;20399;-80
2022/12/17 19:43:56;;;;;;;20.02;16.08;;;6.40;99.90;;;;;;4974973;28;20037;-80
2022/12/17 19:46:23;;;;;;;17.77;14.30;;;6.40;99.90;;;;;;4975059;28;20026;-80
2022/12/17 19:48:49;;;;;;;18.52;14.13;;;6.40;99.90;;;;;;4957496;28;20564;-79
2022/12/17 19:51:17;;;;;;;16.90;15.05;;;6.30;99.90;;;;;;4957151;29;20034;-80
2022/12/17 19:53:44;;;;;;;19.98;15.05;;;6.30;99.90;;;;;;4968602;28;20023;-80
2022/12/17 19:56:23;;;;;;;16.45;13.77;;;6.30;99.90;;;;;;4962895;28;20559;-80
2022/12/17 19:58:59;;;;;;;20.48;14.45;;;6.30;99.90;;;;;;4976000;28;20037;-80
2022/12/17 20:01:30;;;;;;;19.00;14.82;;;6.20;99.90;;;;;;4958583;28;20034;-80
2022/12/17 20:03:57;;;;;;;17.20;14.95;;;6.20;99.90;;;;;;4956851;29;20058;-80
2022/12/17 20:06:25;;;;;;;16.08;13.88;;;6.20;99.90;;;;;;4956619;29;20371;-80
2022/12/17 20:08:51;;;;;;;16.52;14.48;;;6.20;99.90;;;;;;4970809;28;20563;-80
2022/12/17 20:11:33;;;;;;;18.83;15.40;;;6.20;99.90;;;;;;4975747;28;20038;-80
2022/12/17 20:14:17;;;;;;;16.98;13.52;;;6.20;99.90;;;;;;4967756;28;20035;-80
2022/12/17 20:16:44;;;;;;;16.73;14.13;;;6.20;99.90;;;;;;4972909;28;20601;-80
2022/12/17 20:19:32;;;;;;;17.88;14.02;;;6.10;99.90;;;;;;4974354;28;20019;-80
2022/12/17 20:22:03;;;;;;;18.02;13.82;;;6.20;99.90;;;;;;4972902;28;20062;-80
2022/12/17 20:24:30;;;;;;;16.35;13.55;;;6.10;99.90;;;;;;4955052;29;20102;-79
2022/12/17 20:26:56;;;;;;;15.70;13.27;;;6.10;99.90;;;;;;4967347;28;20158;-80
2022/12/17 20:29:24;;;;;;;16.35;14.00;;;6.10;99.90;;;;;;4974357;28;20129;-80
2022/12/17 20:31:51;;;;;;;16.30;13.68;;;6.10;99.90;;;;;;4974247;28;20031;-80
2022/12/17 20:34:19;;;;;;;17.73;14.63;;;6.00;99.90;;;;;;4958266;28;20489;-80
2022/12/17 20:36:44;;;;;;;16.98;14.13;;;6.00;99.90;;;;;;4973906;28;20031;-80
2022/12/17 20:39:11;;;;;;;17.50;14.18;;;6.00;99.90;;;;;;4975388;28;20033;-80
2022/12/17 20:41:36;;;;;;;15.77;13.07;;;6.00;99.90;;;;;;4973680;28;20034;-80
2022/12/17 20:44:09;;;;;;;17.42;13.57;;;6.00;99.90;;;;;;4975261;28;20019;-80
2022/12/17 20:46:35;;;;;;;17.02;13.65;;;5.90;99.90;;;;;;4973417;28;20049;-80
2022/12/17 20:49:02;;;;;;;15.05;12.32;;;5.90;99.90;;;;;;4975282;28;20061;-80
2022/12/17 20:51:29;;;;;;;13.75;12.00;;;5.90;99.90;;;;;;4962054;28;20027;-80
2022/12/17 20:53:57;;;;;;;14.25;11.88;;;5.90;99.90;;;;;;4956140;28;20062;-80
2022/12/17 20:56:26;;;;;;;13.45;11.98;;;5.90;99.90;;;;;;4963593;28;20023;-80
2022/12/17 20:58:58;;;;;;;13.32;11.85;;;5.80;99.90;;;;;;4975033;28;20027;-78
2022/12/17 21:01:26;;;;;;;12.15;10.98;;;5.80;99.90;;;;;;4973601;28;20085;-77
2022/12/17 21:03:53;;;;;;;14.13;11.15;;;5.80;99.90;;;;;;4970712;28;20053;-77
2022/12/17 21:06:31;;;;;;;15.65;12.27;;;5.80;99.90;;;;;;4972452;28;20023;-78
2022/12/17 21:08:57;;;;;;;14.38;11.30;;;5.80;99.90;;;;;;4971319;28;20037;-77
2022/12/17 21:11:27;;;;;;;12.27;10.98;;;5.80;99.90;;;;;;4959676;28;20098;-76
2022/12/17 21:13:54;;;;;;;11.75;10.45;;;5.80;99.90;;;;;;4970191;28;20089;-80
2022/12/17 21:16:25;;;;;;;13.73;11.43;;;5.80;99.90;;;;;;4958821;28;20024;-80
2022/12/17 21:18:51;;;;;;;12.25;10.85;;;5.80;99.90;;;;;;4959549;28;20039;-80
2022/12/17 21:21:19;;;;;;;17.73;12.40;;;5.80;99.90;;;;;;4962566;28;20023;-80
2022/12/17 21:23:46;;;;;;;14.82;10.55;;;5.80;99.90;;;;;;4960243;28;20033;-80
2022/12/17 21:26:36;;;;;;;14.10;11.80;;;5.80;99.90;;;;;;4964105;28;20396;-80
2022/12/17 21:29:04;;;;;;;14.57;12.60;;;5.70;99.90;;;;;;4966254;28;20065;-80
2022/12/17 21:31:33;;;;;;;14.93;12.35;;;5.70;99.90;;;;;;4962056;28;20141;-80
2022/12/17 21:34:01;;;;;;;13.35;11.95;;;5.70;99.90;;;;;;4959165;28;20034;-80
2022/12/17 21:36:28;;;;;;;13.25;10.68;;;5.70;99.90;;;;;;4959711;28;20019;-80
2022/12/17 21:38:54;;;;;;;13.32;10.88;;;5.70;99.90;;;;;;4962520;28;20030;-80
2022/12/17 21:41:23;;;;;;;13.00;11.32;;;5.70;99.90;;;;;;4963370;28;20122;-80
2022/12/17 21:43:56;;;;;;;13.98;11.68;;;5.70;99.90;;;;;;4964324;28;20027;-80
2022/12/17 21:46:24;;;;;;;12.57;11.23;;;5.70;99.90;;;;;;4961576;28;20019;-80
2022/12/17 21:48:51;;;;;;;13.23;11.75;;;5.70;99.90;;;;;;4964618;28;20501;-80
2022/12/17 21:51:17;;;;;;;11.80;10.60;;;5.70;99.90;;;;;;4959896;28;20035;-80
2022/12/17 21:53:43;;;;;;;13.60;10.95;;;5.70;99.90;;;;;;4959886;28;20035;-80
2022/12/17 21:56:11;;;;;;;11.57;10.38;;;5.70;99.90;;;;;;4967287;28;20031;-80
2022/12/17 21:58:38;;;;;;;12.70;11.18;;;5.70;99.90;;;;;;4961232;28;20042;-80
2022/12/17 22:01:23;;;;;;;12.45;10.55;;;5.70;99.90;;;;;;4963137;28;20031;-80
2022/12/17 22:03:50;;;;;;;13.38;11.00;;;5.70;99.90;;;;;;4961477;28;20075;-81
2022/12/17 22:06:18;;;;;;;12.93;11.68;;;5.70;99.90;;;;;;4963198;28;20046;-81
2022/12/17 22:08:45;;;;;;;11.35;10.15;;;5.60;99.90;;;;;;4965373;28;20019;-80
2022/12/17 22:11:17;;;;;;;14.13;11.32;;;5.70;99.90;;;;;;4967849;28;20027;-80
2022/12/17 22:14:01;;;;;;;14.40;11.75;;;5.70;99.90;;;;;;4970115;28;20109;-80
2022/12/17 22:16:47;;;;;;;13.25;11.35;;;5.70;99.90;;;;;;4971001;28;20069;-80
2022/12/17 22:19:19;;;;;;;14.02;11.88;;;5.70;99.90;;;;;;4969952;28;20023;-80
2022/12/17 22:21:46;;;;;;;15.18;12.55;;;5.70;99.90;;;;;;4971355;28;20556;-80
2022/12/17 22:24:18;;;;;;;13.38;11.30;;;5.70;99.90;;;;;;4971138;28;20019;-81
2022/12/17 22:26:44;;;;;;;16.25;11.80;;;5.70;99.90;;;;;;4970065;28;20030;-80
2022/12/17 22:29:10;;;;;;;17.17;12.77;;;5.80;99.90;;;;;;4969882;28;20061;-80
2022/12/17 22:34:20;;;;;;;13.00;11.25;;;5.80;99.90;;;;;;4971121;28;20082;-81
2022/12/17 22:36:45;;;;;;;13.10;11.20;;;5.80;99.90;;;;;;4969747;28;20035;-80
2022/12/17 22:39:13;;;;;;;13.85;11.80;;;5.80;99.90;;;;;;4970812;28;20031;-80
2022/12/17 22:44:25;;;;;;;13.25;10.80;;;5.80;99.90;;;;;;4974148;28;20408;-80
2022/12/17 22:46:51;;;;;;;13.05;11.32;;;5.80;99.90;;;;;;4973053;28;20436;-80
2022/12/17 22:49:17;;;;;;;11.43;10.25;;;5.80;99.90;;;;;;4974198;28;20105;-80
2022/12/17 22:51:44;;;;;;;11.43;10.30;;;5.80;99.90;;;;;;4974485;28;20049;-80
2022/12/17 22:54:11;;;;;;;13.98;11.48;;;5.80;99.90;;;;;;4972793;28;20034;-80
2022/12/17 22:56:39;;;;;;;11.93;10.18;;;5.80;99.90;;;;;;4973015;28;20489;-80
2022/12/17 22:59:05;;;;;;;13.82;10.90;;;5.80;99.90;;;;;;4974292;28;20035;-80
2022/12/17 23:01:31;;;;;;;15.38;10.75;;;5.80;99.90;;;;;;4974027;28;20027;-80
2022/12/17 23:03:59;;;;;;;13.32;11.60;;;5.80;99.90;;;;;;4974228;28;20027;-80
2022/12/17 23:06:25;;;;;;;12.43;11.10;;;5.80;99.90;;;;;;4974230;28;20073;-80
2022/12/17 23:08:51;;;;;;;13.32;11.95;;;5.80;99.90;;;;;;4977132;28;20074;-80
2022/12/17 23:11:20;;;;;;;15.38;12.60;;;5.80;99.90;;;;;;4957491;28;20023;-80
2022/12/17 23:13:46;;;;;;;16.55;13.02;;;5.80;99.90;;;;;;4957796;29;20032;-80
2022/12/17 23:16:13;;;;;;;16.65;13.02;;;5.90;99.90;;;;;;4957288;29;20572;-80
2022/12/17 23:18:43;;;;;;;15.00;13.43;;;5.90;99.90;;;;;;4966930;28;20031;-80
2022/12/17 23:21:14;;;;;;;16.77;13.80;;;5.80;99.90;;;;;;4967633;28;20023;-80
2022/12/17 23:23:41;;;;;;;17.05;12.13;;;5.80;99.90;;;;;;4961478;28;20031;-80
2022/12/17 23:26:09;;;;;;;15.93;13.15;;;5.90;99.90;;;;;;4961765;28;20101;-80
2022/12/17 23:28:35;;;;;;;14.30;12.43;;;5.90;99.90;;;;;;4976269;28;20037;-80
2022/12/17 23:31:13;;;;;;;13.98;12.50;;;5.90;99.90;;;;;;4978195;28;20034;-80
2022/12/17 23:33:40;;;;;;;15.52;13.18;;;5.90;99.90;;;;;;4962464;28;20042;-80
2022/12/17 23:36:11;;;;;;;18.25;14.63;;;5.90;99.90;;;;;;4972770;28;20544;-80
2022/12/17 23:38:37;;;;;;;17.17;13.30;;;5.90;99.90;;;;;;4976303;28;20118;-80
2022/12/17 23:41:12;;;;;;;16.52;13.57;;;6.00;99.90;;;;;;4975135;28;20023;-80
2022/12/17 23:43:38;;;;;;;19.92;13.95;;;6.00;99.90;;;;;;4975096;28;20018;-80
2022/12/17 23:46:05;;;;;;;15.80;13.45;;;6.00;99.90;;;;;;4957974;28;20030;-80
2022/12/17 23:48:34;;;;;;;15.43;12.98;;;6.00;99.90;;;;;;4978372;28;20034;-80
2022/12/17 23:51:00;;;;;;;16.35;13.70;;;6.00;99.90;;;;;;4969513;28;20030;-80
2022/12/17 23:53:27;;;;;;;15.75;13.50;;;6.00;99.90;;;;;;4974236;28;20098;-80
2022/12/17 23:55:53;;;;;;;18.20;12.98;;;6.00;99.90;;;;;;4975901;28;20451;-80
2022/12/17 23:58:19;;;;;;;17.63;14.27;;;6.00;99.90;;;;;;4974635;28;20050;-80
